Time;durP1;ratioP1;P1;durP2;ratioP2;P2;SDS_P1;SDS_P2;PMS_P1;PMS_P2;Temp;Humidity;BMP_temperature;BMP_pressure;BME280_temperature;BME280_humidity;BME280_pressure;Samples;Min_cycle;Max_cycle;Signal;HPM_P1;HPM_P2
2023/08/05 00:00:40;;;;;;;3.38;2.33;;;;;;;;;;12984719;22;20904;-79
2023/08/05 00:05:44;;;;;;;4.43;2.53;;;;;;;;;;12984700;22;20362;-79
2023/08/05 00:10:47;;;;;;;3.58;2.60;;;;;;;;;;12984444;22;20413;-79
2023/08/05 00:15:51;;;;;;;3.20;2.47;;;;;;;;;;12984843;22;20362;-80
2023/08/05 00:20:54;;;;;;;3.90;2.30;;;;;;;;;;12984437;22;20489;-80
2023/08/05 00:25:56;;;;;;;3.83;2.33;;;;;;;;;;12982693;22;20362;-79
2023/08/05 00:30:59;;;;;;;4.20;2.90;;;;;;;;;;12980632;22;20382;-79
2023/08/05 00:36:02;;;;;;;3.72;2.97;;;;;;;;;;12977211;22;20363;-79
2023/08/05 00:41:05;;;;;;;4.60;3.28;;;;;;;;;;12970743;22;20831;-80
2023/08/05 00:46:08;;;;;;;3.33;2.75;;;;;;;;;;12974532;22;20371;-79
2023/08/05 00:51:12;;;;;;;4.22;3.20;;;;;;;;;;12945500;22;20388;-80
2023/08/05 00:56:14;;;;;;;3.80;2.70;;;;;;;;;;12912724;23;20415;-79
2023/08/05 01:01:17;;;;;;;3.83;2.53;;;;;;;;;;12914915;23;20372;-79
2023/08/05 01:06:21;;;;;;;4.00;2.28;;;;;;;;;;12914990;23;20420;-80
2023/08/05 01:11:24;;;;;;;2.78;1.90;;;;;;;;;;12915518;23;20384;-80
2023/08/05 01:16:26;;;;;;;2.97;1.50;;;;;;;;;;12917613;23;20407;-80
2023/08/05 01:21:36;;;;;;;3.25;1.50;;;;;;;;;;12918476;23;20427;-79
2023/08/05 01:26:40;;;;;;;2.55;1.40;;;;;;;;;;12917032;23;20427;-79
2023/08/05 01:31:45;;;;;;;3.67;1.55;;;;;;;;;;12916428;23;20384;-79
2023/08/05 01:36:47;;;;;;;4.15;1.95;;;;;;;;;;12917590;23;20425;-79
2023/08/05 01:41:51;;;;;;;2.25;1.75;;;;;;;;;;12915751;23;20368;-79
2023/08/05 01:46:53;;;;;;;3.10;1.48;;;;;;;;;;12917652;23;20368;-80
2023/08/05 01:51:55;;;;;;;2.00;1.52;;;;;;;;;;12957344;22;20382;-79
2023/08/05 01:56:59;;;;;;;2.90;1.40;;;;;;;;;;12980249;22;20845;-79
2023/08/05 02:02:01;;;;;;;2.30;1.40;;;;;;;;;;12980822;22;20908;-79
2023/08/05 02:07:04;;;;;;;2.80;1.63;;;;;;;;;;12979912;22;20374;-79
2023/08/05 02:12:07;;;;;;;2.80;1.60;;;;;;;;;;12979959;22;20456;-79
2023/08/05 02:17:10;;;;;;;2.50;1.40;;;;;;;;;;12979306;22;20367;-80
2023/08/05 02:22:12;;;;;;;4.63;1.60;;;;;;;;;;12979947;22;20830;-80
2023/08/05 02:27:16;;;;;;;2.70;1.73;;;;;;;;;;12979265;22;20359;-79
2023/08/05 02:32:18;;;;;;;2.83;1.93;;;;;;;;;;12978541;22;20390;-79
2023/08/05 02:37:20;;;;;;;2.20;1.77;;;;;;;;;;12979431;22;20401;-80
2023/08/05 02:42:24;;;;;;;1.70;1.43;;;;;;;;;;12978012;22;20370;-80
2023/08/05 02:47:26;;;;;;;1.67;1.33;;;;;;;;;;12980143;22;20367;-79
2023/08/05 02:52:28;;;;;;;1.50;1.20;;;;;;;;;;12979074;22;20387;-80
2023/08/05 02:57:32;;;;;;;2.63;1.50;;;;;;;;;;12978064;22;20367;-79
2023/08/05 03:02:34;;;;;;;1.23;1.10;;;;;;;;;;12979307;22;20398;-79
2023/08/05 03:07:37;;;;;;;2.33;1.20;;;;;;;;;;12978938;22;20429;-79
2023/08/05 03:12:40;;;;;;;2.90;1.20;;;;;;;;;;12978252;22;20461;-79
2023/08/05 03:17:43;;;;;;;2.47;1.00;;;;;;;;;;12978054;22;20366;-80
2023/08/05 03:22:45;;;;;;;2.00;1.30;;;;;;;;;;12978321;22;20734;-80
2023/08/05 03:27:48;;;;;;;1.55;1.20;;;;;;;;;;12978064;22;20429;-79
2023/08/05 03:32:51;;;;;;;1.77;1.00;;;;;;;;;;12978863;22;20444;-79
2023/08/05 03:37:54;;;;;;;0.80;0.68;;;;;;;;;;12977689;22;20367;-79
2023/08/05 03:42:57;;;;;;;2.47;0.70;;;;;;;;;;12977880;22;20826;-80
2023/08/05 03:47:59;;;;;;;1.00;0.70;;;;;;;;;;12978957;22;20845;-80
2023/08/05 03:53:02;;;;;;;1.50;0.60;;;;;;;;;;12923463;22;20450;-80
2023/08/05 03:58:07;;;;;;;1.02;0.60;;;;;;;;;;12913893;23;20365;-80
2023/08/05 04:03:09;;;;;;;1.63;0.68;;;;;;;;;;12915510;23;20415;-80
2023/08/05 04:08:13;;;;;;;0.80;0.50;;;;;;;;;;12916609;23;20368;-79
2023/08/05 04:13:17;;;;;;;2.08;0.70;;;;;;;;;;12918960;23;20442;-80
2023/08/05 04:18:19;;;;;;;3.30;0.75;;;;;;;;;;12907440;23;20451;-80
2023/08/05 04:23:24;;;;;;;0.88;0.47;;;;;;;;;;12919318;23;20430;-80
2023/08/05 04:28:27;;;;;;;0.50;0.50;;;;;;;;;;12918072;23;20368;-80
2023/08/05 04:33:31;;;;;;;1.03;0.60;;;;;;;;;;12918611;23;20435;-79
2023/08/05 04:38:34;;;;;;;0.70;0.50;;;;;;;;;;12917779;23;20360;-79
2023/08/05 04:43:37;;;;;;;1.80;0.60;;;;;;;;;;12916767;23;20368;-79
2023/08/05 04:48:40;;;;;;;1.38;0.47;;;;;;;;;;12918117;23;20368;-80
2023/08/05 04:53:42;;;;;;;1.30;0.50;;;;;;;;;;12917090;22;20380;-79
2023/08/05 04:58:46;;;;;;;0.60;0.40;;;;;;;;;;12917260;23;20384;-79
2023/08/05 05:03:49;;;;;;;0.75;0.50;;;;;;;;;;12917409;23;20372;-79
2023/08/05 05:08:51;;;;;;;0.75;0.30;;;;;;;;;;12916216;23;20364;-79
2023/08/05 05:13:56;;;;;;;1.20;0.30;;;;;;;;;;12916195;23;20469;-79
2023/08/05 05:18:58;;;;;;;0.57;0.20;;;;;;;;;;12916736;23;20906;-79
2023/08/05 05:24:00;;;;;;;0.73;0.40;;;;;;;;;;12917573;23;20372;-79
2023/08/05 05:29:04;;;;;;;1.15;0.40;;;;;;;;;;12916134;23;20372;-79
2023/08/05 05:34:06;;;;;;;0.60;0.40;;;;;;;;;;12916874;23;20446;-79
2023/08/05 05:39:09;;;;;;;0.80;0.40;;;;;;;;;;12915291;23;20369;-79
2023/08/05 05:44:12;;;;;;;1.75;0.40;;;;;;;;;;12916032;23;20430;-79
2023/08/05 05:49:15;;;;;;;0.30;0.30;;;;;;;;;;12921802;22;20379;-80
2023/08/05 05:54:17;;;;;;;1.05;0.40;;;;;;;;;;12979958;22;20391;-79
2023/08/05 05:59:21;;;;;;;1.02;0.40;;;;;;;;;;12979547;22;20378;-80
2023/08/05 06:04:27;;;;;;;1.00;0.35;;;;;;;;;;12980347;22;20537;-80
2023/08/05 06:09:31;;;;;;;1.10;0.50;;;;;;;;;;12979057;22;20402;-80
2023/08/05 06:14:36;;;;;;;0.40;0.30;;;;;;;;;;12978558;22;20920;-79
2023/08/05 06:19:38;;;;;;;0.70;0.50;;;;;;;;;;12979590;22;20461;-80
2023/08/05 06:24:41;;;;;;;1.42;0.50;;;;;;;;;;12979571;22;20436;-80
2023/08/05 06:29:45;;;;;;;1.50;0.60;;;;;;;;;;12978712;22;20382;-79
2023/08/05 06:34:47;;;;;;;0.75;0.50;;;;;;;;;;12978884;22;20383;-78
2023/08/05 06:39:49;;;;;;;0.90;0.55;;;;;;;;;;12978976;22;20826;-79
2023/08/05 06:44:53;;;;;;;1.60;0.70;;;;;;;;;;12977827;22;20406;-79
2023/08/05 06:49:56;;;;;;;1.90;0.80;;;;;;;;;;12977203;22;20424;-80
2023/08/05 06:55:00;;;;;;;1.07;0.47;;;;;;;;;;12976603;22;20448;-79
2023/08/05 07:00:05;;;;;;;0.73;0.47;;;;;;;;;;12976953;22;20451;-79
2023/08/05 07:05:08;;;;;;;1.40;0.63;;;;;;;;;;12976790;22;20690;-79
2023/08/05 07:10:12;;;;;;;1.03;0.50;;;;;;;;;;12975911;22;20999;-79
2023/08/05 07:15:16;;;;;;;1.27;0.47;;;;;;;;;;12976743;22;20822;-80
2023/08/05 07:20:18;;;;;;;0.88;0.60;;;;;;;;;;12997707;22;20371;-80
2023/08/05 07:25:21;;;;;;;1.60;0.60;;;;;;;;;;12975825;22;20823;-81
2023/08/05 07:30:24;;;;;;;1.55;0.60;;;;;;;;;;12969262;22;20367;-81
2023/08/05 07:35:28;;;;;;;1.13;0.40;;;;;;;;;;12962929;22;20449;-81
2023/08/05 07:40:31;;;;;;;1.90;0.40;;;;;;;;;;12959026;22;20417;-80
2023/08/05 07:45:36;;;;;;;0.60;0.50;;;;;;;;;;12967115;22;20898;-80
2023/08/05 07:50:38;;;;;;;1.17;0.60;;;;;;;;;;12972071;22;20437;-80
2023/08/05 07:55:42;;;;;;;1.17;0.77;;;;;;;;;;12972194;22;20716;-80
2023/08/05 08:00:46;;;;;;;1.45;0.70;;;;;;;;;;12972504;22;20433;-81
2023/08/05 08:05:48;;;;;;;1.27;0.85;;;;;;;;;;12975612;22;20485;-81
2023/08/05 08:10:50;;;;;;;1.23;0.98;;;;;;;;;;12977550;22;20437;-81
2023/08/05 08:15:54;;;;;;;1.60;1.05;;;;;;;;;;12979635;22;20428;-81
2023/08/05 08:20:56;;;;;;;1.02;0.93;;;;;;;;;;12976922;22;20783;-81
2023/08/05 08:25:59;;;;;;;0.75;0.70;;;;;;;;;;12977279;22;20425;-80
2023/08/05 08:31:03;;;;;;;1.30;0.90;;;;;;;;;;12973583;22;20842;-79
2023/08/05 08:36:05;;;;;;;0.97;0.80;;;;;;;;;;12981022;22;20838;-83
2023/08/05 08:41:08;;;;;;;2.22;0.70;;;;;;;;;;12951679;22;20409;-83
2023/08/05 08:46:13;;;;;;;0.57;0.57;;;;;;;;;;12978362;22;20363;-79
2023/08/05 08:51:17;;;;;;;1.40;0.70;;;;;;;;;;12978573;22;20437;-79
2023/08/05 08:56:20;;;;;;;2.45;1.00;;;;;;;;;;12979594;22;20413;-80
2023/08/05 09:01:25;;;;;;;1.70;0.90;;;;;;;;;;12976427;22;20440;-79
2023/08/05 09:06:28;;;;;;;1.45;1.00;;;;;;;;;;12975916;22;20908;-80
2023/08/05 09:11:30;;;;;;;1.10;1.00;;;;;;;;;;12977414;22;20413;-80
2023/08/05 09:16:34;;;;;;;1.90;1.07;;;;;;;;;;12978867;22;20370;-82
2023/08/05 09:21:36;;;;;;;1.20;0.90;;;;;;;;;;12975591;22;20843;-81
2023/08/05 09:26:38;;;;;;;1.60;1.20;;;;;;;;;;12974014;22;20363;-79
2023/08/05 09:31:44;;;;;;;1.90;0.80;;;;;;;;;;12972930;22;20695;-81
2023/08/05 09:36:47;;;;;;;0.80;0.52;;;;;;;;;;12975805;22;20424;-81
2023/08/05 09:41:52;;;;;;;1.30;0.90;;;;;;;;;;12977528;22;20370;-80
2023/08/05 09:47:01;;;;;;;0.77;0.67;;;;;;;;;;12973208;22;20424;-81
2023/08/05 09:52:04;;;;;;;1.80;0.80;;;;;;;;;;12977863;22;20379;-81
2023/08/05 09:57:09;;;;;;;1.90;1.10;;;;;;;;;;12968473;22;20368;-81
2023/08/05 10:02:18;;;;;;;1.17;0.88;;;;;;;;;;12976621;22;21098;-81
2023/08/05 10:07:22;;;;;;;1.83;1.15;;;;;;;;;;12972441;22;20393;-81
2023/08/05 10:12:29;;;;;;;1.03;0.83;;;;;;;;;;12965090;22;20386;-81
2023/08/05 10:17:33;;;;;;;1.10;0.77;;;;;;;;;;12968260;22;20912;-80
2023/08/05 10:22:38;;;;;;;2.27;0.80;;;;;;;;;;12966740;22;20379;-81
2023/08/05 10:27:41;;;;;;;0.80;0.80;;;;;;;;;;12961342;22;20383;-81
2023/08/05 10:32:53;;;;;;;2.60;1.00;;;;;;;;;;12968459;22;20409;-81
2023/08/05 10:38:07;;;;;;;1.53;0.90;;;;;;;;;;12960000;22;20382;-82
2023/08/05 10:43:10;;;;;;;1.73;0.60;;;;;;;;;;12966436;22;20858;-80
2023/08/05 10:48:14;;;;;;;0.98;0.70;;;;;;;;;;12961816;22;20370;-81
2023/08/05 10:53:17;;;;;;;1.60;1.00;;;;;;;;;;12962576;22;20382;-81
2023/08/05 10:58:23;;;;;;;1.40;0.90;;;;;;;;;;12962943;22;20378;-81
2023/08/05 11:03:32;;;;;;;1.52;1.00;;;;;;;;;;12966570;22;20374;-81
2023/08/05 11:08:35;;;;;;;1.67;1.00;;;;;;;;;;12968093;22;20378;-81
2023/08/05 11:13:38;;;;;;;0.80;0.70;;;;;;;;;;12967364;22;20456;-81
2023/08/05 11:18:43;;;;;;;1.20;1.00;;;;;;;;;;12968202;22;20375;-81
2023/08/05 11:23:46;;;;;;;3.22;1.30;;;;;;;;;;12968834;22;20680;-81
2023/08/05 11:28:48;;;;;;;3.33;1.30;;;;;;;;;;12966705;22;20379;-81
2023/08/05 11:33:53;;;;;;;1.70;1.15;;;;;;;;;;12967886;22;20390;-80
2023/08/05 11:38:57;;;;;;;2.35;1.15;;;;;;;;;;12967546;22;20375;-85
2023/08/05 11:43:59;;;;;;;1.83;1.23;;;;;;;;;;12970090;22;20641;-81
2023/08/05 11:49:18;;;;;;;2.20;1.52;;;;;;;;;;12963220;22;20374;-80
2023/08/05 11:54:28;;;;;;;2.80;1.73;;;;;;;;;;12960472;22;20444;-81
2023/08/05 11:59:37;;;;;;;2.45;1.67;;;;;;;;;;12960999;22;20441;-81
2023/08/05 12:04:45;;;;;;;2.88;1.70;;;;;;;;;;12966075;22;20386;-81
2023/08/05 12:10:07;;;;;;;2.20;1.70;;;;;;;;;;12967534;22;20378;-81
2023/08/05 12:15:13;;;;;;;1.90;1.60;;;;;;;;;;12961910;22;20383;-81
2023/08/05 12:20:18;;;;;;;2.50;2.00;;;;;;;;;;12967884;22;20374;-81
2023/08/05 12:25:22;;;;;;;1.20;0.90;;;;;;;;;;12966484;22;20838;-81
2023/08/05 12:30:24;;;;;;;1.13;0.95;;;;;;;;;;12967114;22;20440;-81
2023/08/05 12:35:28;;;;;;;1.30;1.20;;;;;;;;;;12968626;22;20880;-81
2023/08/05 12:40:30;;;;;;;1.80;1.60;;;;;;;;;;12969267;22;20387;-81
2023/08/05 12:45:33;;;;;;;3.72;2.22;;;;;;;;;;12969037;22;20370;-81
2023/08/05 12:50:36;;;;;;;3.00;2.17;;;;;;;;;;12971190;22;20883;-81
2023/08/05 12:55:39;;;;;;;4.10;2.72;;;;;;;;;;12970775;22;20684;-86
2023/08/05 13:40:40;;;;;;;0.82;0.50;;;;;;;;;;10605987;27;20367;-82
2023/08/05 13:45:48;;;;;;;0.70;0.57;;;;;;;;;;10612883;27;20540;-84
2023/08/05 13:51:00;;;;;;;0.87;0.60;;;;;;;;;;10603437;27;20431;-86
2023/08/05 13:56:04;;;;;;;0.50;0.50;;;;;;;;;;10612493;27;20450;-81
2023/08/05 14:01:14;;;;;;;0.80;0.70;;;;;;;;;;10611584;27;20436;-87
2023/08/05 14:06:17;;;;;;;1.45;0.82;;;;;;;;;;10605404;27;20819;-85
2023/08/05 14:11:21;;;;;;;1.52;0.80;;;;;;;;;;10611981;27;20464;-83
2023/08/05 14:16:23;;;;;;;1.33;0.65;;;;;;;;;;10601960;27;20483;-82
2023/08/05 14:21:25;;;;;;;0.95;0.60;;;;;;;;;;10592303;27;20814;-82
2023/08/05 14:26:29;;;;;;;1.30;0.80;;;;;;;;;;10587294;27;20824;-82
2023/08/05 14:31:31;;;;;;;0.60;0.60;;;;;;;;;;10592181;27;20486;-81
2023/08/05 14:36:33;;;;;;;0.60;0.60;;;;;;;;;;10589396;28;20481;-82
2023/08/05 14:41:38;;;;;;;0.93;0.50;;;;;;;;;;10588354;27;20485;-80
2023/08/05 14:46:41;;;;;;;1.10;0.50;;;;;;;;;;10587405;27;21112;-82
2023/08/05 14:51:43;;;;;;;0.95;0.80;;;;;;;;;;10554886;27;20438;-81
2023/08/05 14:56:47;;;;;;;0.50;0.50;;;;;;;;;;10558718;27;20446;-81
2023/08/05 15:01:49;;;;;;;2.00;0.68;;;;;;;;;;10564017;27;20535;-84
2023/08/05 15:06:51;;;;;;;0.60;0.60;;;;;;;;;;10562625;28;20495;-82
2023/08/05 15:11:55;;;;;;;0.80;0.60;;;;;;;;;;10561975;28;20450;-83
2023/08/05 15:16:57;;;;;;;0.50;0.50;;;;;;;;;;10555893;28;20446;-81
2023/08/05 15:22:00;;;;;;;0.83;0.50;;;;;;;;;;10562633;28;20434;-90
2023/08/05 15:27:04;;;;;;;0.60;0.60;;;;;;;;;;10557777;28;20453;-80
2023/08/05 15:32:09;;;;;;;1.15;0.65;;;;;;;;;;10551626;28;20438;-84
2023/08/05 15:37:12;;;;;;;0.87;0.77;;;;;;;;;;10562187;28;20685;-84
2023/08/05 15:42:15;;;;;;;1.30;1.00;;;;;;;;;;10560397;28;20462;-82
2023/08/05 15:47:18;;;;;;;2.92;0.95;;;;;;;;;;10554583;28;20544;-81
2023/08/05 15:52:20;;;;;;;1.13;1.02;;;;;;;;;;10559153;28;20447;-84
2023/08/05 15:57:23;;;;;;;0.70;0.70;;;;;;;;;;10552398;27;20454;-81
2023/08/05 16:02:26;;;;;;;2.80;1.20;;;;;;;;;;10557511;27;20414;-82
2023/08/05 16:07:28;;;;;;;1.70;1.23;;;;;;;;;;10561218;28;20937;-82
2023/08/05 16:12:32;;;;;;;2.08;1.13;;;;;;;;;;10542906;28;21064;-83
2023/08/05 16:17:34;;;;;;;0.87;0.80;;;;;;;;;;10553931;28;20965;-83
2023/08/05 16:22:36;;;;;;;1.10;1.00;;;;;;;;;;10549714;28;20466;-82
2023/08/05 16:27:40;;;;;;;1.13;1.02;;;;;;;;;;10561571;27;20450;-83
2023/08/05 16:32:43;;;;;;;1.20;0.70;;;;;;;;;;10576141;27;20886;-83
2023/08/05 16:37:45;;;;;;;1.10;0.77;;;;;;;;;;10561598;27;20507;-82
2023/08/05 16:42:49;;;;;;;1.15;1.05;;;;;;;;;;10555247;27;20498;-83
2023/08/05 16:47:51;;;;;;;1.60;1.03;;;;;;;;;;10550905;28;20438;-82
2023/08/05 16:52:54;;;;;;;1.42;1.00;;;;;;;;;;10569231;27;20434;-82
2023/08/05 16:57:57;;;;;;;1.25;0.93;;;;;;;;;;10559661;27;20930;-82
2023/08/05 17:03:00;;;;;;;1.63;0.95;;;;;;;;;;10560385;28;20426;-83
2023/08/05 17:08:02;;;;;;;2.08;1.30;;;;;;;;;;10566188;28;20420;-83
2023/08/05 17:13:05;;;;;;;1.83;1.37;;;;;;;;;;10559491;28;20443;-82
2023/08/05 17:18:08;;;;;;;2.75;1.30;;;;;;;;;;10551177;28;20517;-82
2023/08/05 17:23:10;;;;;;;2.10;1.30;;;;;;;;;;10557295;28;20434;-81
2023/08/05 17:28:14;;;;;;;1.55;1.17;;;;;;;;;;10552071;28;20647;-82
2023/08/05 17:33:17;;;;;;;1.05;0.90;;;;;;;;;;10544050;28;20450;-82
2023/08/05 17:38:19;;;;;;;1.95;0.98;;;;;;;;;;10543874;28;20446;-81
2023/08/05 17:43:23;;;;;;;1.13;0.90;;;;;;;;;;10547923;28;20474;-83
2023/08/05 17:48:25;;;;;;;1.75;1.20;;;;;;;;;;10535581;28;20452;-83
2023/08/05 17:53:27;;;;;;;1.87;1.10;;;;;;;;;;10538281;28;20420;-84
2023/08/05 17:58:31;;;;;;;2.53;1.42;;;;;;;;;;10541561;28;20959;-85
2023/08/05 18:03:33;;;;;;;1.30;1.13;;;;;;;;;;10536408;28;21145;-83
2023/08/05 18:08:36;;;;;;;1.65;1.10;;;;;;;;;;10548673;28;21004;-82
2023/08/05 18:13:39;;;;;;;1.50;1.30;;;;;;;;;;10557949;28;20411;-82
2023/08/05 18:18:42;;;;;;;1.13;1.02;;;;;;;;;;10559692;27;20458;-82
2023/08/05 18:23:44;;;;;;;1.85;1.30;;;;;;;;;;10548886;27;20578;-82
2023/08/05 18:28:48;;;;;;;1.65;1.10;;;;;;;;;;10553165;28;20466;-82
2023/08/05 18:33:50;;;;;;;2.55;1.15;;;;;;;;;;10546685;28;20450;-82
2023/08/05 18:38:53;;;;;;;2.45;1.45;;;;;;;;;;10547067;28;20515;-82
2023/08/05 18:43:56;;;;;;;1.80;1.60;;;;;;;;;;10547217;27;20450;-81
2023/08/05 18:48:59;;;;;;;2.20;1.70;;;;;;;;;;10542267;28;20516;-80
2023/08/05 18:54:02;;;;;;;1.45;1.35;;;;;;;;;;10554291;28;20913;-79
2023/08/05 18:59:07;;;;;;;1.50;1.40;;;;;;;;;;10551991;27;20496;-86
2023/08/05 19:04:09;;;;;;;1.80;1.20;;;;;;;;;;10562649;28;20926;-83
2023/08/05 19:09:12;;;;;;;2.43;1.20;;;;;;;;;;10548750;28;20456;-82
2023/08/05 19:14:16;;;;;;;2.40;1.60;;;;;;;;;;10542528;27;20406;-83
2023/08/05 19:19:18;;;;;;;2.35;1.50;;;;;;;;;;10535040;28;20572;-81
2023/08/05 19:24:20;;;;;;;3.30;1.83;;;;;;;;;;10546761;28;20409;-82
2023/08/05 19:29:24;;;;;;;2.53;1.52;;;;;;;;;;10554403;28;20451;-82
2023/08/05 19:34:26;;;;;;;2.42;1.30;;;;;;;;;;10544250;28;20416;-82
2023/08/05 19:39:29;;;;;;;3.10;1.43;;;;;;;;;;10535781;28;20434;-82
2023/08/05 19:44:32;;;;;;;1.70;1.30;;;;;;;;;;10544986;28;21070;-83
2023/08/05 19:49:35;;;;;;;2.70;1.30;;;;;;;;;;10540226;27;20405;-82
2023/08/05 19:54:37;;;;;;;1.55;1.30;;;;;;;;;;10549663;28;20943;-82
2023/08/05 19:59:41;;;;;;;1.90;1.53;;;;;;;;;;10543677;27;20466;-83
2023/08/05 20:04:43;;;;;;;2.75;1.60;;;;;;;;;;10546219;28;20507;-82
2023/08/05 20:09:45;;;;;;;3.00;1.50;;;;;;;;;;10549758;27;20446;-81
2023/08/05 20:14:49;;;;;;;2.78;1.73;;;;;;;;;;10546657;28;20450;-82
2023/08/05 20:19:51;;;;;;;2.13;1.70;;;;;;;;;;10542739;28;20404;-82
2023/08/05 20:24:54;;;;;;;2.00;1.80;;;;;;;;;;10546236;28;20394;-82
2023/08/05 20:29:58;;;;;;;2.63;2.17;;;;;;;;;;10530917;28;20464;-83
2023/08/05 20:35:01;;;;;;;2.92;2.00;;;;;;;;;;10541474;28;20471;-82
2023/08/05 20:40:05;;;;;;;3.75;1.80;;;;;;;;;;10535297;28;20405;-81
2023/08/05 20:45:10;;;;;;;2.40;2.07;;;;;;;;;;10530474;28;20413;-81
2023/08/05 20:50:14;;;;;;;2.53;2.00;;;;;;;;;;10544527;28;20994;-81
2023/08/05 20:55:16;;;;;;;3.00;1.90;;;;;;;;;;10547084;28;20805;-82
2023/08/05 21:00:20;;;;;;;2.80;1.98;;;;;;;;;;10547745;27;20460;-82
2023/08/05 21:05:23;;;;;;;2.65;2.10;;;;;;;;;;10541458;28;20417;-82
2023/08/05 21:10:25;;;;;;;3.60;2.00;;;;;;;;;;10539850;28;20482;-82
2023/08/05 21:15:29;;;;;;;5.93;3.70;;;;;;;;;;10541727;28;20514;-81
2023/08/05 21:20:31;;;;;;;2.60;2.40;;;;;;;;;;10559290;28;21031;-82
2023/08/05 21:25:33;;;;;;;5.47;2.63;;;;;;;;;;10540635;28;20412;-81
2023/08/05 21:30:37;;;;;;;3.47;2.70;;;;;;;;;;10544095;28;20476;-83
2023/08/05 21:35:40;;;;;;;6.43;2.90;;;;;;;;;;10544470;28;20427;-83
2023/08/05 21:40:46;;;;;;;4.00;3.15;;;;;;;;;;10539442;28;20969;-84
2023/08/05 21:45:51;;;;;;;4.63;3.58;;;;;;;;;;10540498;28;20471;-83
2023/08/05 21:50:54;;;;;;;3.97;3.50;;;;;;;;;;10540159;28;20490;-83
2023/08/05 21:55:56;;;;;;;4.93;3.95;;;;;;;;;;10549692;28;20480;-84
2023/08/05 22:01:00;;;;;;;6.13;4.22;;;;;;;;;;10548236;27;20870;-83
2023/08/05 22:06:06;;;;;;;4.15;3.63;;;;;;;;;;10548936;28;20916;-83
2023/08/05 22:11:09;;;;;;;4.97;4.10;;;;;;;;;;10545037;27;20456;-83
2023/08/05 22:16:13;;;;;;;4.80;4.20;;;;;;;;;;10542561;27;20403;-83
2023/08/05 22:21:15;;;;;;;6.67;4.37;;;;;;;;;;10546898;28;20532;-83
2023/08/05 22:26:17;;;;;;;5.25;4.15;;;;;;;;;;10546302;27;20400;-83
2023/08/05 22:31:25;;;;;;;6.47;4.30;;;;;;;;;;10546260;28;21008;-82
2023/08/05 22:36:29;;;;;;;5.55;4.95;;;;;;;;;;10547677;27;20408;-82
2023/08/05 22:41:31;;;;;;;5.72;4.72;;;;;;;;;;10551260;28;20408;-82
2023/08/05 22:46:35;;;;;;;6.47;4.60;;;;;;;;;;10536847;28;20430;-82
2023/08/05 22:51:37;;;;;;;4.20;3.80;;;;;;;;;;10547365;28;20451;-82
2023/08/05 22:56:40;;;;;;;6.43;4.50;;;;;;;;;;10547727;28;20420;-83
2023/08/05 23:01:43;;;;;;;5.50;4.00;;;;;;;;;;10547332;28;20910;-83
2023/08/05 23:06:46;;;;;;;5.15;3.90;;;;;;;;;;10550678;28;20445;-82
2023/08/05 23:11:48;;;;;;;4.60;4.10;;;;;;;;;;10551053;28;20755;-82
2023/08/05 23:16:51;;;;;;;5.18;4.68;;;;;;;;;;10549203;28;20404;-83
2023/08/05 23:21:54;;;;;;;4.28;3.88;;;;;;;;;;10558199;28;20971;-82
2023/08/05 23:26:56;;;;;;;5.88;4.00;;;;;;;;;;10550325;28;20943;-82
2023/08/05 23:32:00;;;;;;;7.90;3.80;;;;;;;;;;10548749;28;20428;-82
2023/08/05 23:37:02;;;;;;;4.30;3.47;;;;;;;;;;10550386;28;20412;-82
2023/08/05 23:42:05;;;;;;;6.63;3.58;;;;;;;;;;10554421;27;20445;-83
2023/08/05 23:47:08;;;;;;;3.00;2.70;;;;;;;;;;10550049;28;20455;-82
2023/08/05 23:52:10;;;;;;;5.15;2.97;;;;;;;;;;10552329;28;20509;-82
2023/08/05 23:57:13;;;;;;;3.13;2.78;;;;;;;;;;10550690;28;20409;-82
